createdAt,value
2017-09-09T00:00:18.595Z,0
2017-09-09T00:01:20.122Z,0
2017-09-09T00:02:21.684Z,0
2017-09-09T00:03:23.266Z,0
2017-09-09T00:04:24.851Z,0
2017-09-09T00:05:26.438Z,0
2017-09-09T00:06:27.987Z,0
2017-09-09T00:07:29.561Z,0
2017-09-09T00:08:31.049Z,0
2017-09-09T00:09:32.616Z,0
2017-09-09T00:10:34.106Z,0
2017-09-09T00:11:35.619Z,0
2017-09-09T00:12:37.186Z,0
2017-09-09T00:13:38.766Z,0
2017-09-09T00:14:40.271Z,0
2017-09-09T00:15:41.780Z,0
2017-09-09T00:16:43.304Z,0
2017-09-09T00:17:44.893Z,0
2017-09-09T00:18:46.454Z,0
2017-09-09T00:19:47.944Z,0
2017-09-09T00:20:49.481Z,0
2017-09-09T00:21:50.996Z,0
2017-09-09T00:22:52.492Z,0
2017-09-09T00:23:53.998Z,0
2017-09-09T00:24:55.544Z,0
2017-09-09T00:25:57.055Z,0
2017-09-09T00:26:58.530Z,0
2017-09-09T00:28:00.041Z,0
2017-09-09T00:29:01.597Z,0
2017-09-09T00:30:03.126Z,0
2017-09-09T00:31:04.614Z,0
2017-09-09T00:32:06.137Z,0
2017-09-09T00:33:07.598Z,0
2017-09-09T00:34:09.151Z,0
2017-09-09T00:35:10.650Z,0
2017-09-09T00:36:12.207Z,0
2017-09-09T00:37:13.767Z,0
2017-09-09T00:38:15.304Z,0
2017-09-09T00:39:16.790Z,0
2017-09-09T00:40:18.327Z,0
2017-09-09T00:41:19.821Z,0
2017-09-09T00:42:21.402Z,0
2017-09-09T00:43:22.946Z,0
2017-09-09T00:44:25.150Z,0
2017-09-09T00:45:26.742Z,0
2017-09-09T00:46:28.264Z,0
2017-09-09T00:47:29.806Z,0
2017-09-09T00:48:31.345Z,0
2017-09-09T00:49:32.836Z,0
2017-09-09T00:50:34.336Z,0
2017-09-09T00:51:35.852Z,0
2017-09-09T00:52:38.377Z,0
2017-09-09T00:53:39.987Z,0
2017-09-09T00:54:41.510Z,0
2017-09-09T00:55:43.053Z,0
2017-09-09T00:56:44.592Z,0
2017-09-09T00:57:46.131Z,0
2017-09-09T00:58:47.658Z,0
2017-09-09T00:59:49.163Z,0
2017-09-09T01:00:50.686Z,0
2017-09-09T01:01:52.267Z,0
2017-09-09T01:02:53.840Z,0
2017-09-09T01:03:55.438Z,0
2017-09-09T01:04:57.000Z,0
2017-09-09T01:05:58.623Z,0
2017-09-09T01:07:00.160Z,0
2017-09-09T01:08:01.713Z,0
2017-09-09T01:09:04.219Z,0
2017-09-09T01:10:05.742Z,0
2017-09-09T01:11:07.225Z,0
2017-09-09T01:12:08.696Z,0
2017-09-09T01:13:11.211Z,0
2017-09-09T01:14:12.772Z,0
2017-09-09T01:15:14.272Z,0
2017-09-09T01:16:15.828Z,0
2017-09-09T01:17:17.362Z,0
2017-09-09T01:18:18.908Z,0
2017-09-09T01:19:20.487Z,0
2017-09-09T01:20:22.068Z,0
2017-09-09T01:21:23.616Z,0
2017-09-09T01:22:25.174Z,0
2017-09-09T01:23:26.700Z,0
2017-09-09T01:24:28.205Z,0
2017-09-09T01:25:29.683Z,0
2017-09-09T01:26:31.235Z,0
2017-09-09T01:27:32.741Z,0
2017-09-09T01:28:34.267Z,0
2017-09-09T01:29:35.787Z,0
2017-09-09T01:30:37.263Z,0
2017-09-09T01:31:38.810Z,0
2017-09-09T01:32:40.372Z,0
2017-09-09T01:33:41.917Z,0
2017-09-09T01:34:43.426Z,0
2017-09-09T01:35:45.021Z,0
2017-09-09T01:36:46.558Z,0
2017-09-09T01:37:48.141Z,0
2017-09-09T01:38:49.664Z,0
2017-09-09T01:39:51.197Z,0
2017-09-09T01:40:52.714Z,0
2017-09-09T01:41:54.233Z,0
2017-09-09T01:42:55.760Z,0
2017-09-09T01:43:57.350Z,0
2017-09-09T01:44:58.925Z,0
2017-09-09T01:46:00.530Z,0
2017-09-09T01:47:02.006Z,0
2017-09-09T01:48:03.536Z,0
2017-09-09T01:49:05.068Z,0
2017-09-09T01:50:07.578Z,0
2017-09-09T01:51:09.120Z,0
2017-09-09T01:52:10.674Z,0
2017-09-09T01:53:12.183Z,0
2017-09-09T01:54:13.685Z,0
2017-09-09T01:55:15.230Z,0
2017-09-09T01:56:16.806Z,0
2017-09-09T01:57:18.368Z,0
2017-09-09T01:58:19.928Z,0
2017-09-09T01:59:21.471Z,0
2017-09-09T02:00:22.987Z,0
2017-09-09T02:01:24.543Z,0
2017-09-09T02:02:26.063Z,0
2017-09-09T02:03:27.596Z,0
2017-09-09T02:04:29.168Z,0
2017-09-09T02:05:30.707Z,0
2017-09-09T02:06:32.239Z,0
2017-09-09T02:07:33.802Z,0
2017-09-09T02:08:35.334Z,0
2017-09-09T02:09:36.838Z,0
2017-09-09T02:10:38.358Z,0
2017-09-09T02:11:39.867Z,0
2017-09-09T02:12:41.441Z,0
2017-09-09T02:13:43.007Z,0
2017-09-09T02:14:44.516Z,0
2017-09-09T02:15:46.020Z,0
2017-09-09T02:16:48.575Z,0
2017-09-09T02:17:50.055Z,0
2017-09-09T02:18:51.555Z,0
2017-09-09T02:19:53.061Z,0
2017-09-09T02:20:54.589Z,0
2017-09-09T02:21:56.149Z,0
2017-09-09T02:22:57.705Z,0
2017-09-09T02:23:59.240Z,0
2017-09-09T02:25:01.765Z,0
2017-09-09T02:26:03.312Z,0
2017-09-09T02:27:04.836Z,0
2017-09-09T02:28:06.362Z,0
2017-09-09T02:29:07.807Z,0
2017-09-09T02:30:09.323Z,0
2017-09-09T02:31:10.861Z,0
2017-09-09T02:32:12.364Z,0
2017-09-09T02:33:13.907Z,0
2017-09-09T02:34:15.422Z,0
2017-09-09T02:35:16.976Z,0
2017-09-09T02:36:18.527Z,0
2017-09-09T02:37:20.073Z,0
2017-09-09T02:38:21.593Z,0
2017-09-09T02:39:23.139Z,0
2017-09-09T02:40:24.759Z,0
2017-09-09T02:41:26.293Z,0
2017-09-09T02:42:27.859Z,0
2017-09-09T02:43:29.389Z,0
2017-09-09T02:44:30.903Z,0
2017-09-09T02:45:32.423Z,0
2017-09-09T02:46:33.968Z,0
2017-09-09T02:47:35.464Z,0
2017-09-09T02:48:36.943Z,0
2017-09-09T02:49:38.506Z,0
2017-09-09T02:50:39.983Z,0
2017-09-09T02:51:41.521Z,0
2017-09-09T02:52:43.047Z,0
2017-09-09T02:53:44.546Z,0
2017-09-09T02:54:46.100Z,0
2017-09-09T02:55:47.605Z,0
2017-09-09T02:56:49.172Z,0
2017-09-09T02:57:50.710Z,0
2017-09-09T02:58:52.280Z,0
2017-09-09T02:59:53.802Z,0
2017-09-09T03:00:55.334Z,0
2017-09-09T03:01:56.874Z,0
2017-09-09T03:02:58.458Z,0
2017-09-09T03:04:01.035Z,0
2017-09-09T03:05:02.533Z,0
2017-09-09T03:06:04.067Z,0
2017-09-09T03:07:05.616Z,0
2017-09-09T03:08:07.203Z,0
2017-09-09T03:09:08.711Z,0
2017-09-09T03:10:10.314Z,0
2017-09-09T03:11:11.868Z,0
2017-09-09T03:12:13.426Z,0
2017-09-09T03:13:14.897Z,0
2017-09-09T03:14:17.446Z,0
2017-09-09T03:15:19.008Z,0
2017-09-09T03:16:20.499Z,0
2017-09-09T03:17:22.049Z,0
2017-09-09T03:18:23.595Z,0
2017-09-09T03:19:25.191Z,0
2017-09-09T03:20:26.789Z,0
2017-09-09T03:21:28.381Z,0
2017-09-09T03:22:29.941Z,0
2017-09-09T03:23:31.430Z,0
2017-09-09T03:24:32.974Z,0
2017-09-09T03:25:34.551Z,0
2017-09-09T03:26:37.081Z,0
2017-09-09T03:27:38.599Z,0
2017-09-09T03:28:41.149Z,0
2017-09-09T03:29:42.652Z,0
2017-09-09T03:30:44.160Z,0
2017-09-09T03:31:45.633Z,0
2017-09-09T03:32:47.209Z,0
2017-09-09T03:33:48.738Z,0
2017-09-09T03:34:50.260Z,0
2017-09-09T03:35:51.792Z,0
2017-09-09T03:36:53.334Z,0
2017-09-09T03:37:54.879Z,0
2017-09-09T03:38:56.433Z,0
2017-09-09T03:39:57.973Z,0
2017-09-09T03:40:59.562Z,0
2017-09-09T03:42:01.067Z,0
2017-09-09T03:43:02.659Z,0
2017-09-09T03:44:04.199Z,0
2017-09-09T03:45:05.741Z,0
2017-09-09T03:46:07.347Z,0
2017-09-09T03:47:09.878Z,0
2017-09-09T03:48:11.448Z,0
2017-09-09T03:49:13.134Z,0
2017-09-09T03:50:14.714Z,0
2017-09-09T03:51:16.334Z,0
2017-09-09T03:52:17.888Z,0
2017-09-09T03:53:19.494Z,0
2017-09-09T03:54:21.126Z,0
2017-09-09T03:55:22.666Z,0
2017-09-09T03:56:24.255Z,0
2017-09-09T03:57:26.023Z,0
2017-09-09T03:58:27.560Z,0
2017-09-09T03:59:29.153Z,0
2017-09-09T04:00:30.738Z,0
2017-09-09T04:01:32.367Z,0
2017-09-09T04:02:33.916Z,0
2017-09-09T04:03:35.464Z,0
2017-09-09T04:04:37.015Z,0
2017-09-09T04:05:38.550Z,0
2017-09-09T04:06:40.065Z,0
2017-09-09T04:07:41.623Z,0
2017-09-09T04:08:43.113Z,0
2017-09-09T04:09:44.635Z,0
2017-09-09T04:10:46.168Z,0
2017-09-09T04:11:47.659Z,0
2017-09-09T04:12:49.268Z,0
2017-09-09T04:13:50.790Z,0
2017-09-09T04:14:52.326Z,0
2017-09-09T04:15:54.963Z,0
2017-09-09T04:16:56.548Z,0
2017-09-09T04:17:58.111Z,0
2017-09-09T04:18:59.642Z,0
2017-09-09T04:20:01.206Z,0
2017-09-09T04:21:02.683Z,0
2017-09-09T04:22:04.194Z,0
2017-09-09T04:23:05.714Z,0
2017-09-09T04:24:07.292Z,0
2017-09-09T04:25:08.750Z,0
2017-09-09T04:26:10.278Z,0
2017-09-09T04:27:11.798Z,0
2017-09-09T04:28:13.337Z,0
2017-09-09T04:29:14.815Z,0
2017-09-09T04:30:16.407Z,0
2017-09-09T04:31:17.945Z,0
2017-09-09T04:32:19.497Z,0
2017-09-09T04:33:21.070Z,0
2017-09-09T04:34:22.586Z,0
2017-09-09T04:35:24.118Z,0
2017-09-09T04:36:25.686Z,0
2017-09-09T04:37:27.252Z,0
2017-09-09T04:38:28.802Z,0
2017-09-09T04:39:30.322Z,0
2017-09-09T04:40:32.882Z,0
2017-09-09T04:41:34.431Z,0
2017-09-09T04:42:36.999Z,0
2017-09-09T04:43:38.509Z,0
2017-09-09T04:44:40.060Z,0
2017-09-09T04:45:41.626Z,0
2017-09-09T04:46:44.157Z,0
2017-09-09T04:47:45.675Z,0
2017-09-09T04:48:47.211Z,0
2017-09-09T04:49:48.757Z,0
2017-09-09T04:50:50.368Z,0
2017-09-09T04:51:51.904Z,0
2017-09-09T04:52:53.467Z,0
2017-09-09T04:53:55.174Z,0
2017-09-09T04:54:56.723Z,0
2017-09-09T04:55:58.244Z,0
2017-09-09T04:56:59.886Z,0
2017-09-09T04:58:01.422Z,0
2017-09-09T04:59:03.093Z,0
2017-09-09T05:00:04.638Z,0
2017-09-09T05:01:06.164Z,0
2017-09-09T05:02:07.736Z,0
2017-09-09T05:03:09.309Z,0
2017-09-09T05:04:10.883Z,0
2017-09-09T05:05:12.412Z,0
2017-09-09T05:06:13.971Z,0
2017-09-09T05:07:15.549Z,0
2017-09-09T05:08:17.092Z,0
2017-09-09T05:09:18.605Z,0
2017-09-09T05:10:20.165Z,0
2017-09-09T05:11:21.705Z,0
2017-09-09T05:12:23.247Z,0
2017-09-09T05:13:25.843Z,0
2017-09-09T05:14:27.346Z,0
2017-09-09T05:15:28.893Z,5
2017-09-09T05:16:30.417Z,5
2017-09-09T05:17:31.933Z,5
2017-09-09T05:18:33.489Z,5
2017-09-09T05:19:35.029Z,5
2017-09-09T05:20:36.545Z,5
2017-09-09T05:21:38.108Z,5
2017-09-09T05:22:39.659Z,5
2017-09-09T05:23:41.290Z,5
2017-09-09T05:24:42.772Z,5
2017-09-09T05:25:44.308Z,5
2017-09-09T05:26:45.841Z,11
2017-09-09T05:27:48.358Z,11
2017-09-09T05:28:49.867Z,11
2017-09-09T05:29:51.480Z,5
2017-09-09T05:30:53.031Z,5
2017-09-09T05:31:54.618Z,5
2017-09-09T05:32:56.192Z,5
2017-09-09T05:33:57.723Z,5
2017-09-09T05:34:59.217Z,5
2017-09-09T05:36:01.722Z,5
2017-09-09T05:37:03.266Z,5
2017-09-09T05:38:04.755Z,5
2017-09-09T05:39:06.305Z,5
2017-09-09T05:40:07.872Z,5
2017-09-09T05:41:09.352Z,5
2017-09-09T05:42:10.951Z,5
2017-09-09T05:43:12.476Z,5
2017-09-09T05:44:15.045Z,5
2017-09-09T05:45:16.644Z,5
2017-09-09T05:46:18.176Z,5
2017-09-09T05:47:19.695Z,5
2017-09-09T05:48:21.237Z,5
2017-09-09T05:49:22.830Z,5
2017-09-09T05:50:25.481Z,5
2017-09-09T05:51:27.062Z,11
2017-09-09T05:52:28.662Z,11
2017-09-09T05:53:30.182Z,11
2017-09-09T05:54:31.776Z,11
2017-09-09T05:55:33.335Z,11
2017-09-09T05:56:34.930Z,11
2017-09-09T05:57:36.420Z,11
2017-09-09T05:58:37.979Z,11
2017-09-09T05:59:39.568Z,16
2017-09-09T06:00:41.143Z,16
2017-09-09T06:01:42.672Z,22
2017-09-09T06:02:44.235Z,28
2017-09-09T06:03:45.831Z,28
2017-09-09T06:04:48.341Z,22
2017-09-09T06:05:49.949Z,22
2017-09-09T06:06:51.547Z,16
2017-09-09T06:07:53.146Z,16
2017-09-09T06:08:54.786Z,16
2017-09-09T06:09:56.455Z,22
2017-09-09T06:11:00.063Z,22
2017-09-09T06:12:01.600Z,28
2017-09-09T06:13:03.254Z,33
2017-09-09T06:14:04.805Z,33
2017-09-09T06:15:06.343Z,33
2017-09-09T06:16:07.881Z,33
2017-09-09T06:17:09.421Z,33
2017-09-09T06:18:10.949Z,33
2017-09-09T06:19:12.495Z,33
2017-09-09T06:20:14.055Z,33
2017-09-09T06:21:16.595Z,33
2017-09-09T06:22:18.112Z,33
2017-09-09T06:23:20.723Z,33
2017-09-09T06:24:22.251Z,33
2017-09-09T06:25:23.844Z,33
2017-09-09T06:26:25.371Z,39
2017-09-09T06:27:26.946Z,45
2017-09-09T06:28:28.461Z,56
2017-09-09T06:29:30.002Z,67
2017-09-09T06:30:31.559Z,78
2017-09-09T06:31:33.088Z,95
2017-09-09T06:32:34.609Z,101
2017-09-09T06:33:36.159Z,106
2017-09-09T06:34:37.638Z,106
2017-09-09T06:35:39.203Z,101
2017-09-09T06:36:40.754Z,95
2017-09-09T06:37:42.355Z,90
2017-09-09T06:38:43.915Z,84
2017-09-09T06:39:45.500Z,78
2017-09-09T06:40:47.069Z,90
2017-09-09T06:41:48.608Z,101
2017-09-09T06:42:50.206Z,112
2017-09-09T06:43:51.765Z,118
2017-09-09T06:44:53.308Z,118
2017-09-09T06:45:54.900Z,112
2017-09-09T06:46:56.505Z,106
2017-09-09T06:47:58.068Z,112
2017-09-09T06:48:59.699Z,129
2017-09-09T06:50:01.218Z,151
2017-09-09T06:51:02.743Z,174
2017-09-09T06:52:04.361Z,191
2017-09-09T06:53:05.930Z,185
2017-09-09T06:54:07.467Z,168
2017-09-09T06:55:08.954Z,157
2017-09-09T06:56:10.507Z,157
2017-09-09T06:57:12.092Z,168
2017-09-09T06:58:13.642Z,157
2017-09-09T06:59:15.214Z,140
2017-09-09T07:00:16.835Z,106
2017-09-09T07:02:21.316Z,106
2017-09-09T07:03:22.691Z,101
2017-09-09T07:04:24.097Z,90
2017-09-09T07:05:25.502Z,84
2017-09-09T07:06:26.897Z,84
2017-09-09T07:07:28.317Z,84
2017-09-09T07:08:29.697Z,84
2017-09-09T07:09:31.136Z,90
2017-09-09T07:10:33.557Z,112
2017-09-09T07:11:34.941Z,123
2017-09-09T07:12:36.374Z,135
2017-09-09T07:13:37.745Z,146
2017-09-09T07:14:39.166Z,157
2017-09-09T07:15:40.563Z,151
2017-09-09T07:16:41.960Z,157
2017-09-09T07:17:43.362Z,168
2017-09-09T07:18:44.796Z,180
2017-09-09T07:19:46.284Z,202
2017-09-09T07:20:47.784Z,225
2017-09-09T07:21:49.316Z,202
2017-09-09T07:22:51.694Z,168
2017-09-09T07:23:53.290Z,168
2017-09-09T07:24:54.889Z,157
2017-09-09T07:25:56.488Z,146
2017-09-09T07:26:58.131Z,151
2017-09-09T07:27:59.705Z,157
2017-09-09T07:29:01.305Z,140
2017-09-09T07:30:02.875Z,118
2017-09-09T07:31:04.492Z,112
2017-09-09T07:32:06.039Z,112
2017-09-09T07:33:08.693Z,106
2017-09-09T07:34:10.345Z,106
2017-09-09T07:35:11.931Z,106
2017-09-09T07:36:13.464Z,106
2017-09-09T07:37:14.973Z,151
2017-09-09T07:38:16.624Z,208
2017-09-09T07:39:18.329Z,253
2017-09-09T07:40:19.957Z,286
2017-09-09T07:41:21.616Z,270
2017-09-09T07:42:23.380Z,337
2017-09-09T07:43:26.224Z,320
2017-09-09T07:44:27.930Z,348
2017-09-09T07:45:29.679Z,343
2017-09-09T07:46:31.546Z,303
2017-09-09T07:47:33.260Z,320
2017-09-09T07:48:34.953Z,326
2017-09-09T07:49:36.613Z,331
2017-09-09T07:50:38.331Z,326
2017-09-09T07:51:40.007Z,309
2017-09-09T07:52:41.731Z,292
2017-09-09T07:53:43.429Z,281
2017-09-09T07:54:45.037Z,270
2017-09-09T07:55:46.671Z,264
2017-09-09T07:56:48.327Z,247
2017-09-09T07:57:49.973Z,241
2017-09-09T07:58:51.627Z,225
2017-09-09T07:59:53.348Z,213
2017-09-09T08:02:09.598Z,191
2017-09-09T08:03:11.086Z,191
2017-09-09T08:04:12.565Z,191
2017-09-09T08:05:14.083Z,185
2017-09-09T08:06:15.574Z,196
2017-09-09T08:07:17.007Z,213
2017-09-09T08:08:18.580Z,213
2017-09-09T08:09:20.157Z,208
2017-09-09T08:10:21.783Z,213
2017-09-09T08:11:23.329Z,236
2017-09-09T08:12:24.957Z,264
2017-09-09T08:13:26.608Z,281
2017-09-09T08:14:28.153Z,281
2017-09-09T08:15:29.780Z,253
2017-09-09T08:16:31.382Z,225
2017-09-09T08:17:32.933Z,213
2017-09-09T08:18:34.575Z,225
2017-09-09T08:19:36.258Z,236
2017-09-09T08:20:38.861Z,241
2017-09-09T08:21:40.571Z,258
2017-09-09T08:22:42.138Z,275
2017-09-09T08:23:43.760Z,281
2017-09-09T08:24:45.340Z,281
2017-09-09T08:25:46.947Z,286
2017-09-09T08:26:49.585Z,303
2017-09-09T08:27:51.204Z,331
2017-09-09T08:28:52.754Z,354
2017-09-09T08:29:54.363Z,348
2017-09-09T08:30:55.932Z,348
2017-09-09T08:31:57.562Z,337
2017-09-09T08:32:59.135Z,315
2017-09-09T08:34:00.839Z,303
2017-09-09T08:35:02.479Z,303
2017-09-09T08:36:04.056Z,320
2017-09-09T08:37:05.678Z,337
2017-09-09T08:38:07.286Z,337
2017-09-09T08:39:08.855Z,337
2017-09-09T08:40:10.406Z,331
2017-09-09T08:41:11.980Z,315
2017-09-09T08:42:13.591Z,309
2017-09-09T08:43:15.134Z,303
2017-09-09T08:44:16.712Z,309
2017-09-09T08:45:18.271Z,331
2017-09-09T08:46:19.877Z,348
2017-09-09T08:47:21.467Z,365
2017-09-09T08:48:23.063Z,376
2017-09-09T08:49:24.710Z,388
2017-09-09T08:50:26.309Z,388
2017-09-09T08:51:27.950Z,388
2017-09-09T08:52:29.485Z,393
2017-09-09T08:53:31.130Z,393
2017-09-09T08:54:32.801Z,427
2017-09-09T08:55:34.485Z,455
2017-09-09T08:56:36.108Z,461
2017-09-09T08:57:37.680Z,444
2017-09-09T08:58:39.297Z,427
2017-09-09T08:59:40.907Z,410
2017-09-09T09:00:42.554Z,393
2017-09-09T09:02:09.757Z,421
2017-09-09T09:03:11.256Z,461
2017-09-09T09:04:12.623Z,489
2017-09-09T09:05:14.044Z,528
2017-09-09T09:06:15.491Z,562
2017-09-09T09:07:17.117Z,585
2017-09-09T09:08:19.565Z,607
2017-09-09T09:09:21.065Z,630
2017-09-09T09:10:22.484Z,630
2017-09-09T09:11:23.923Z,585
2017-09-09T09:12:25.434Z,478
2017-09-09T09:13:26.890Z,388
2017-09-09T09:14:28.478Z,427
2017-09-09T09:15:30.101Z,489
2017-09-09T09:16:31.647Z,551
2017-09-09T09:17:33.374Z,545
2017-09-09T09:18:34.905Z,466
2017-09-09T09:19:36.578Z,371
2017-09-09T09:20:38.255Z,315
2017-09-09T09:21:39.872Z,348
2017-09-09T09:22:41.424Z,393
2017-09-09T09:23:42.939Z,393
2017-09-09T09:24:44.532Z,365
2017-09-09T09:25:46.168Z,354
2017-09-09T09:26:47.699Z,382
2017-09-09T09:27:49.287Z,343
2017-09-09T09:28:50.840Z,309
2017-09-09T09:29:52.447Z,303
2017-09-09T09:30:54.176Z,343
2017-09-09T09:31:55.790Z,489
2017-09-09T09:32:57.340Z,585
2017-09-09T09:33:58.898Z,641
2017-09-09T09:35:00.463Z,720
2017-09-09T09:36:02.060Z,742
2017-09-09T09:37:03.797Z,725
2017-09-09T09:38:05.356Z,725
2017-09-09T09:39:07.041Z,748
2017-09-09T09:40:08.644Z,748
2017-09-09T09:41:10.280Z,708
2017-09-09T09:42:11.972Z,697
2017-09-09T09:43:13.889Z,703
2017-09-09T09:44:15.503Z,680
2017-09-09T09:45:18.098Z,646
2017-09-09T09:46:19.694Z,691
2017-09-09T09:47:22.295Z,720
2017-09-09T09:48:23.891Z,708
2017-09-09T09:49:25.531Z,770
2017-09-09T09:50:27.100Z,871
2017-09-09T09:51:28.696Z,888
2017-09-09T09:52:30.244Z,838
2017-09-09T09:53:33.000Z,810
2017-09-09T09:54:34.596Z,770
2017-09-09T09:55:36.174Z,725
2017-09-09T09:56:37.839Z,787
2017-09-09T09:57:39.383Z,815
2017-09-09T09:58:40.914Z,725
2017-09-09T09:59:42.630Z,641
2017-09-09T10:00:44.221Z,641
2017-09-09T10:02:09.669Z,708
2017-09-09T10:03:11.074Z,798
2017-09-09T10:04:13.526Z,680
2017-09-09T10:05:14.916Z,562
2017-09-09T10:06:16.329Z,540
2017-09-09T10:07:17.718Z,545
2017-09-09T10:08:19.121Z,607
2017-09-09T10:09:20.542Z,663
2017-09-09T10:10:21.925Z,703
2017-09-09T10:11:23.305Z,708
2017-09-09T10:12:24.738Z,641
2017-09-09T10:13:26.133Z,624
2017-09-09T10:14:27.515Z,596
2017-09-09T10:15:28.914Z,556
2017-09-09T10:16:30.325Z,630
2017-09-09T10:17:31.692Z,663
2017-09-09T10:18:33.075Z,579
2017-09-09T10:19:34.457Z,483
2017-09-09T10:20:35.854Z,450
2017-09-09T10:21:37.331Z,405
2017-09-09T10:22:38.724Z,388
2017-09-09T10:23:40.143Z,528
2017-09-09T10:24:41.597Z,579
2017-09-09T10:25:42.965Z,523
2017-09-09T10:26:44.400Z,596
2017-09-09T10:27:45.807Z,748
2017-09-09T10:28:47.211Z,905
2017-09-09T10:29:48.600Z,860
2017-09-09T10:30:50.046Z,714
2017-09-09T10:31:51.486Z,675
2017-09-09T10:32:52.939Z,686
2017-09-09T10:33:54.331Z,703
2017-09-09T10:34:55.764Z,686
2017-09-09T10:35:57.162Z,646
2017-09-09T10:36:58.564Z,675
2017-09-09T10:38:00.009Z,618
2017-09-09T10:39:01.478Z,601
2017-09-09T10:40:02.865Z,500
2017-09-09T10:41:04.302Z,450
2017-09-09T10:42:06.153Z,388
2017-09-09T10:43:07.560Z,331
2017-09-09T10:44:09.046Z,292
2017-09-09T10:45:10.475Z,264
2017-09-09T10:46:11.910Z,376
2017-09-09T10:47:13.327Z,613
2017-09-09T10:48:14.701Z,686
2017-09-09T10:49:16.188Z,697
2017-09-09T10:50:17.598Z,686
2017-09-09T10:51:19.031Z,663
2017-09-09T10:52:20.440Z,579
2017-09-09T10:53:21.851Z,506
2017-09-09T10:54:23.294Z,427
2017-09-09T10:55:25.705Z,371
2017-09-09T10:56:27.131Z,393
2017-09-09T10:57:28.512Z,438
2017-09-09T10:58:29.914Z,421
2017-09-09T10:59:31.406Z,455
2017-09-09T11:00:33.023Z,540
2017-09-09T11:01:34.567Z,596
2017-09-09T11:02:36.663Z,528
2017-09-09T11:03:38.399Z,461
2017-09-09T11:04:40.005Z,421
2017-09-09T11:05:41.666Z,427
2017-09-09T11:06:43.291Z,421
2017-09-09T11:07:44.859Z,405
2017-09-09T11:08:46.456Z,405
2017-09-09T11:09:48.136Z,354
2017-09-09T11:10:49.770Z,275
2017-09-09T11:11:51.357Z,275
2017-09-09T11:12:52.911Z,292
2017-09-09T11:13:54.426Z,230
2017-09-09T11:14:56.217Z,191
2017-09-09T11:15:57.838Z,208
2017-09-09T11:16:59.376Z,303
2017-09-09T11:18:00.912Z,421
2017-09-09T11:19:02.515Z,455
2017-09-09T11:20:04.075Z,523
2017-09-09T11:21:05.637Z,613
2017-09-09T11:22:07.166Z,669
2017-09-09T11:23:08.676Z,652
2017-09-09T11:24:10.314Z,652
2017-09-09T11:25:11.893Z,787
2017-09-09T11:26:13.458Z,978
2017-09-09T11:27:15.017Z,1181
2017-09-09T11:28:16.644Z,1091
2017-09-09T11:29:18.185Z,939
2017-09-09T11:30:20.865Z,731
2017-09-09T11:31:22.351Z,641
2017-09-09T11:32:23.839Z,585
2017-09-09T11:33:25.387Z,483
2017-09-09T11:34:26.961Z,343
2017-09-09T11:35:28.647Z,298
2017-09-09T11:36:30.214Z,343
2017-09-09T11:37:31.797Z,371
2017-09-09T11:38:33.403Z,427
2017-09-09T11:39:35.005Z,461
2017-09-09T11:40:36.562Z,489
2017-09-09T11:41:38.092Z,483
2017-09-09T11:42:39.631Z,517
2017-09-09T11:43:41.106Z,641
2017-09-09T11:44:42.644Z,753
2017-09-09T11:45:44.193Z,742
2017-09-09T11:46:45.674Z,641
2017-09-09T11:47:47.215Z,540
2017-09-09T11:48:48.839Z,450
2017-09-09T11:49:50.389Z,354
2017-09-09T11:50:52.003Z,343
2017-09-09T11:51:53.532Z,343
2017-09-09T11:52:55.190Z,360
2017-09-09T11:53:56.799Z,343
2017-09-09T11:54:58.379Z,331
2017-09-09T11:55:59.941Z,489
2017-09-09T11:57:01.497Z,579
2017-09-09T11:58:03.029Z,562
2017-09-09T11:59:04.671Z,573
2017-09-09T12:00:06.172Z,579
2017-09-09T12:01:07.786Z,675
2017-09-09T12:02:09.318Z,843
2017-09-09T12:03:10.920Z,922
2017-09-09T12:04:12.523Z,815
2017-09-09T12:05:14.143Z,708
2017-09-09T12:06:15.714Z,1833
2017-09-09T12:07:17.235Z,916
2017-09-09T12:08:18.783Z,1125
2017-09-09T12:09:20.257Z,1141
2017-09-09T12:10:21.776Z,2041
2017-09-09T12:11:23.346Z,1170
2017-09-09T12:12:24.891Z,1243
2017-09-09T12:13:26.505Z,1366
2017-09-09T12:14:28.031Z,1350
2017-09-09T12:15:29.557Z,1395
2017-09-09T12:16:31.163Z,1501
2017-09-09T12:17:33.206Z,1248
2017-09-09T12:18:34.698Z,1153
2017-09-09T12:19:36.220Z,1175
2017-09-09T12:20:37.864Z,1136
2017-09-09T12:21:39.504Z,1220
2017-09-09T12:22:41.072Z,1850
2017-09-09T12:23:42.633Z,2036
2017-09-09T12:24:44.194Z,1985
2017-09-09T12:25:45.721Z,1783
2017-09-09T12:26:47.236Z,1704
2017-09-09T12:27:48.783Z,1518
2017-09-09T12:28:50.311Z,1490
2017-09-09T12:29:52.876Z,1659
2017-09-09T12:30:54.470Z,1496
2017-09-09T12:31:56.117Z,1299
2017-09-09T12:32:57.614Z,1395
2017-09-09T12:34:00.172Z,1743
2017-09-09T12:35:01.746Z,1490
2017-09-09T12:36:03.296Z,1181
2017-09-09T12:37:04.842Z,1113
2017-09-09T12:38:06.474Z,1186
2017-09-09T12:39:08.028Z,1125
2017-09-09T12:40:09.597Z,1316
2017-09-09T12:41:11.152Z,1271
2017-09-09T12:42:12.719Z,1248
2017-09-09T12:43:14.441Z,1243
2017-09-09T12:44:15.993Z,1175
2017-09-09T12:45:17.488Z,1108
2017-09-09T12:46:19.110Z,1125
2017-09-09T12:47:20.706Z,1203
2017-09-09T12:48:22.283Z,1203
2017-09-09T12:49:23.844Z,1355
2017-09-09T12:50:25.455Z,1288
2017-09-09T12:51:27.147Z,1226
2017-09-09T12:52:28.690Z,1085
2017-09-09T12:53:30.246Z,1006
2017-09-09T12:54:31.834Z,1001
2017-09-09T12:55:33.378Z,1080
2017-09-09T12:56:34.938Z,1209
2017-09-09T12:57:36.464Z,1338
2017-09-09T12:58:38.014Z,1153
2017-09-09T12:59:39.550Z,1051
2017-09-09T13:00:41.106Z,1018
2017-09-09T13:01:42.727Z,1063
2017-09-09T13:02:44.251Z,1085
2017-09-09T13:03:45.816Z,916
2017-09-09T13:04:47.385Z,753
2017-09-09T13:05:48.918Z,714
2017-09-09T13:06:50.518Z,776
2017-09-09T13:07:52.082Z,866
2017-09-09T13:08:53.646Z,877
2017-09-09T13:09:55.351Z,821
2017-09-09T13:10:56.872Z,748
2017-09-09T13:11:58.488Z,669
2017-09-09T13:13:00.086Z,590
2017-09-09T13:14:01.612Z,545
2017-09-09T13:15:03.178Z,540
2017-09-09T13:16:04.728Z,517
2017-09-09T13:17:06.293Z,483
2017-09-09T13:18:07.829Z,506
2017-09-09T13:19:09.367Z,556
2017-09-09T13:20:10.924Z,652
2017-09-09T13:21:12.440Z,748
2017-09-09T13:22:14.002Z,765
2017-09-09T13:23:15.598Z,742
2017-09-09T13:24:17.111Z,736
2017-09-09T13:25:18.604Z,708
2017-09-09T13:26:20.113Z,691
2017-09-09T13:27:21.676Z,720
2017-09-09T13:28:23.241Z,753
2017-09-09T13:29:24.784Z,770
2017-09-09T13:30:26.342Z,781
2017-09-09T13:31:31.343Z,787
2017-09-09T13:32:32.897Z,793
2017-09-09T13:33:34.453Z,793
2017-09-09T13:34:35.959Z,748
2017-09-09T13:35:37.459Z,691
2017-09-09T13:36:39.044Z,669
2017-09-09T13:37:40.592Z,652
2017-09-09T13:38:42.152Z,663
2017-09-09T13:39:43.622Z,669
2017-09-09T13:40:45.178Z,675
2017-09-09T13:41:46.689Z,624
2017-09-09T13:42:48.285Z,568
2017-09-09T13:43:49.824Z,562
2017-09-09T13:44:51.299Z,590
2017-09-09T13:45:52.776Z,585
2017-09-09T13:46:54.291Z,568
2017-09-09T13:47:55.823Z,590
2017-09-09T13:48:57.280Z,613
2017-09-09T13:49:58.822Z,596
2017-09-09T13:51:00.357Z,585
2017-09-09T13:52:01.885Z,579
2017-09-09T13:53:03.406Z,540
2017-09-09T13:54:04.945Z,511
2017-09-09T13:55:06.412Z,528
2017-09-09T13:56:08.930Z,568
2017-09-09T13:57:10.807Z,579
2017-09-09T13:58:12.562Z,573
2017-09-09T13:59:14.186Z,568
2017-09-09T14:00:15.718Z,562
2017-09-09T14:02:09.734Z,579
2017-09-09T14:03:11.129Z,579
2017-09-09T14:04:12.617Z,562
2017-09-09T14:05:14.045Z,534
2017-09-09T14:06:15.437Z,500
2017-09-09T14:07:16.824Z,472
2017-09-09T14:08:18.265Z,472
2017-09-09T14:09:19.621Z,489
2017-09-09T14:10:21.048Z,500
2017-09-09T14:11:22.433Z,495
2017-09-09T14:12:23.827Z,483
2017-09-09T14:13:25.242Z,483
2017-09-09T14:14:26.666Z,495
2017-09-09T14:15:28.042Z,511
2017-09-09T14:16:29.544Z,517
2017-09-09T14:17:30.937Z,506
2017-09-09T14:18:32.378Z,483
2017-09-09T14:19:33.760Z,461
2017-09-09T14:20:35.172Z,450
2017-09-09T14:21:36.600Z,450
2017-09-09T14:22:38.027Z,455
2017-09-09T17:51:18.106Z,0
2017-09-09T17:52:19.470Z,0
2017-09-09T17:53:20.861Z,0
2017-09-09T17:54:22.384Z,0
2017-09-09T17:55:23.851Z,0
2017-09-09T17:56:25.287Z,0
2017-09-09T17:57:26.743Z,0
2017-09-09T17:58:28.118Z,0
2017-09-09T17:59:29.542Z,0
2017-09-09T18:00:30.943Z,0
2017-09-09T18:01:32.395Z,0
2017-09-09T18:02:33.775Z,0
2017-09-09T18:03:35.274Z,0
2017-09-09T18:04:36.647Z,0